Time;durP1;ratioP1;P1;durP2;ratioP2;P2;SDS_P1;SDS_P2;PMS_P1;PMS_P2;Temp;Humidity;BMP_temperature;BMP_pressure;BME280_temperature;BME280_humidity;BME280_pressure;Samples;Min_cycle;Max_cycle;Signal;HPM_P1;HPM_P2
2022/08/24 00:00:33;;;;;;;;;;;18.50;99.90;;;;;;5064895;28;20002;-64
2022/08/24 00:02:59;;;;;;;;;;;18.50;99.90;;;;;;5063127;28;19912;-65
2022/08/24 00:05:25;;;;;;;;;;;18.50;99.90;;;;;;5064978;28;20329;-64
2022/08/24 00:07:50;;;;;;;;;;;18.50;99.90;;;;;;5063708;28;19947;-64
2022/08/24 00:10:16;;;;;;;;;;;18.40;99.90;;;;;;5068230;28;20256;-64
2022/08/24 00:12:42;;;;;;;;;;;18.40;99.90;;;;;;5064793;28;19912;-64
2022/08/24 00:15:09;;;;;;;;;;;18.40;99.90;;;;;;5068292;28;19908;-64
2022/08/24 00:17:34;;;;;;;;;;;18.30;99.90;;;;;;5063614;28;20401;-64
2022/08/24 00:19:59;;;;;;;;;;;18.30;99.90;;;;;;5068548;28;19915;-64
2022/08/24 00:22:25;;;;;;;;;;;18.30;99.90;;;;;;5062395;28;19932;-62
2022/08/24 00:24:50;;;;;;;;;;;18.30;99.90;;;;;;5068470;28;19994;-63
2022/08/24 00:27:16;;;;;;;;;;;18.20;99.90;;;;;;5062357;28;19921;-65
2022/08/24 00:29:41;;;;;;;;;;;18.20;99.90;;;;;;5068706;28;19908;-66
2022/08/24 00:32:07;;;;;;;;;;;18.20;99.90;;;;;;5047608;28;19962;-67
2022/08/24 00:34:33;;;;;;;;;;;18.20;99.90;;;;;;5048360;28;19913;-67
2022/08/24 00:36:58;;;;;;;;;;;18.10;99.90;;;;;;5067572;28;20340;-74
2022/08/24 00:39:23;;;;;;;;;;;18.10;99.90;;;;;;5065828;28;20292;-69
2022/08/24 00:41:50;;;;;;;;;;;18.10;99.90;;;;;;5068271;28;19912;-68
2022/08/24 00:44:16;;;;;;;;;;;18.10;99.90;;;;;;5064529;28;19995;-69
2022/08/24 00:46:50;;;;;;;;;;;18.00;99.90;;;;;;5068668;28;19979;-68
2022/08/24 00:49:22;;;;;;;;;;;18.00;99.90;;;;;;5064255;28;19920;-68
2022/08/24 00:51:54;;;;;;;;;;;18.00;99.90;;;;;;5048708;28;19908;-71
2022/08/24 00:54:21;;;;;;;;;;;17.90;99.90;;;;;;5064288;28;19916;-68
2022/08/24 00:56:50;;;;;;;;;;;17.90;99.90;;;;;;5068142;28;19908;-67
2022/08/24 00:59:19;;;;;;;;;;;17.80;99.90;;;;;;5065627;28;19991;-70
2022/08/24 01:01:45;;;;;;;;;;;17.80;99.90;;;;;;5066974;28;20003;-69
2022/08/24 01:04:14;;;;;;;;;;;17.70;99.90;;;;;;5063750;28;20051;-68
2022/08/24 01:06:40;;;;;;;;;;;17.70;99.90;;;;;;5048734;28;20011;-67
2022/08/24 01:09:05;;;;;;;;;;;17.70;99.90;;;;;;5051036;28;20432;-67
2022/08/24 01:11:32;;;;;;;;;;;17.60;99.90;;;;;;5067500;28;19909;-67
2022/08/24 01:13:59;;;;;;;;;;;17.60;99.90;;;;;;5060714;28;19999;-67
2022/08/24 01:19:27;;;;;;;;;;;17.50;99.90;;;;;;5062099;28;19978;-67
2022/08/24 01:21:57;;;;;;;;;;;17.50;99.90;;;;;;5048192;28;19957;-67
2022/08/24 01:24:23;;;;;;;;;;;17.50;99.90;;;;;;5067280;28;19916;-67
2022/08/24 01:26:49;;;;;;;;;;;17.50;99.90;;;;;;5071759;28;19908;-67
2022/08/24 01:29:21;;;;;;;;;;;17.40;99.90;;;;;;5066517;28;20393;-67
2022/08/24 01:31:47;;;;;;;;;;;17.40;99.90;;;;;;5071718;28;20010;-68
2022/08/24 01:34:12;;;;;;;;;;;17.40;99.90;;;;;;5065494;28;20006;-68
2022/08/24 01:36:41;;;;;;;;;;;17.30;99.90;;;;;;5052172;28;19915;-67
2022/08/24 01:39:19;;;;;;;;;;;17.30;99.90;;;;;;5054907;28;19939;-68
2022/08/24 01:41:45;;;;;;;;;;;17.30;99.90;;;;;;5071340;28;19928;-67
2022/08/24 01:44:10;;;;;;;;;;;17.30;99.90;;;;;;5065351;28;19916;-68
2022/08/24 01:46:36;;;;;;;;;;;17.20;99.90;;;;;;5071496;28;19912;-69
2022/08/24 01:49:01;;;;;;;;;;;17.20;99.90;;;;;;5063895;28;20382;-69
2022/08/24 01:51:30;;;;;;;;;;;17.20;99.90;;;;;;5071796;28;20345;-69
2022/08/24 01:53:57;;;;;;;;;;;17.20;99.90;;;;;;5063167;28;19912;-69
2022/08/24 01:56:23;;;;;;;;;;;17.20;99.90;;;;;;5071359;28;19916;-68
2022/08/24 01:58:48;;;;;;;;;;;17.10;99.90;;;;;;5061999;28;20401;-68
2022/08/24 02:01:15;;;;;;;;;;;17.10;99.90;;;;;;5071501;28;19915;-68
2022/08/24 02:03:40;;;;;;;;;;;17.10;99.90;;;;;;5050057;28;19978;-68
2022/08/24 02:06:06;;;;;;;;;;;17.10;99.90;;;;;;5070818;28;20357;-68
2022/08/24 02:08:33;;;;;;;;;;;17.10;99.90;;;;;;5051382;28;19917;-67
2022/08/24 02:10:58;;;;;;;;;;;17.10;99.90;;;;;;5072199;28;19915;-67
2022/08/24 02:13:24;;;;;;;;;;;17.20;99.90;;;;;;5049728;28;20346;-68
2022/08/24 02:15:49;;;;;;;;;;;17.30;99.90;;;;;;5070212;28;19912;-68
2022/08/24 02:18:15;;;;;;;;;;;17.40;99.90;;;;;;5049395;28;20530;-69
2022/08/24 02:20:40;;;;;;;;;;;17.50;99.90;;;;;;5051106;28;19905;-69
2022/08/24 02:23:06;;;;;;;;;;;17.50;99.90;;;;;;5068176;28;19912;-69
2022/08/24 02:25:31;;;;;;;;;;;17.60;99.90;;;;;;5070749;28;19909;-69
2022/08/24 02:27:58;;;;;;;;;;;17.60;99.90;;;;;;5068616;28;19908;-69
2022/08/24 02:30:24;;;;;;;;;;;17.70;99.90;;;;;;5070727;28;19931;-69
2022/08/24 02:32:50;;;;;;;;;;;17.80;99.90;;;;;;5068459;28;19909;-69
2022/08/24 02:35:16;;;;;;;;;;;17.80;99.90;;;;;;5070307;28;19915;-69
2022/08/24 02:37:42;;;;;;;;;;;17.90;99.90;;;;;;5068774;28;20385;-69
2022/08/24 02:40:08;;;;;;;;;;;17.90;99.90;;;;;;5071095;28;19958;-69
2022/08/24 02:42:35;;;;;;;;;;;18.00;99.90;;;;;;5068960;28;19919;-69
2022/08/24 02:45:01;;;;;;;;;;;18.10;99.90;;;;;;5070835;28;20378;-69
2022/08/24 02:47:26;;;;;;;;;;;18.10;99.90;;;;;;5070250;28;19909;-69
2022/08/24 02:49:52;;;;;;;;;;;18.10;99.90;;;;;;5067792;28;19924;-69
2022/08/24 02:52:17;;;;;;;;;;;18.10;99.90;;;;;;5069845;28;19912;-69
2022/08/24 02:54:42;;;;;;;;;;;18.10;99.90;;;;;;5066622;28;20029;-69
2022/08/24 02:57:08;;;;;;;;;;;18.10;99.90;;;;;;5070378;28;19947;-69
2022/08/24 02:59:34;;;;;;;;;;;18.10;99.90;;;;;;5065079;28;19924;-70
2022/08/24 03:01:59;;;;;;;;;;;18.00;99.90;;;;;;5069836;28;19908;-68
2022/08/24 03:04:25;;;;;;;;;;;17.90;99.90;;;;;;5063643;28;19909;-70
2022/08/24 03:06:50;;;;;;;;;;;17.80;99.90;;;;;;5070210;28;19908;-70
2022/08/24 03:09:16;;;;;;;;;;;17.70;99.90;;;;;;5062353;28;19934;-68
2022/08/24 03:11:41;;;;;;;;;;;17.70;99.90;;;;;;5070050;28;19915;-77
2022/08/24 03:14:07;;;;;;;;;;;17.60;99.90;;;;;;5061256;28;19919;-68
2022/08/24 03:16:33;;;;;;;;;;;17.50;99.90;;;;;;5069966;28;19912;-69
2022/08/24 03:18:58;;;;;;;;;;;17.50;99.90;;;;;;5048960;28;20227;-69
2022/08/24 03:21:24;;;;;;;;;;;17.50;99.90;;;;;;5069175;28;19908;-69
2022/08/24 03:23:49;;;;;;;;;;;17.40;99.90;;;;;;5048746;28;20382;-68
2022/08/24 03:26:15;;;;;;;;;;;17.40;99.90;;;;;;5069009;28;20020;-69
2022/08/24 03:28:40;;;;;;;;;;;17.40;99.90;;;;;;5048645;28;20271;-65
2022/08/24 03:31:06;;;;;;;;;;;17.30;99.90;;;;;;5069221;28;19908;-66
2022/08/24 03:33:31;;;;;;;;;;;17.30;99.90;;;;;;5048288;28;19908;-65
2022/08/24 03:35:57;;;;;;;;;;;17.30;99.90;;;;;;5049769;28;19909;-65
2022/08/24 03:38:22;;;;;;;;;;;17.20;99.90;;;;;;5066941;28;19917;-66
2022/08/24 03:40:48;;;;;;;;;;;17.20;99.90;;;;;;5069653;28;20121;-66
2022/08/24 03:43:44;;;;;;;;;;;17.20;99.90;;;;;;5067564;28;19995;-66
2022/08/24 03:46:01;;;;;;;;;;;17.20;99.90;;;;;;5068793;28;19936;-66
2022/08/24 03:48:27;;;;;;;;;;;17.10;99.90;;;;;;5067145;28;19953;-65
2022/08/24 03:50:53;;;;;;;;;;;17.10;99.90;;;;;;5069663;28;19912;-65
2022/08/24 03:53:18;;;;;;;;;;;17.10;99.90;;;;;;5067153;28;20366;-65
2022/08/24 03:55:44;;;;;;;;;;;17.00;99.90;;;;;;5069365;28;19939;-65
2022/08/24 03:58:09;;;;;;;;;;;17.00;99.90;;;;;;5066690;28;19915;-66
2022/08/24 04:00:35;;;;;;;;;;;16.90;99.90;;;;;;5068571;28;20396;-66
2022/08/24 04:03:01;;;;;;;;;;;16.90;99.90;;;;;;5066546;28;19915;-66
2022/08/24 04:05:26;;;;;;;;;;;16.90;99.90;;;;;;5069006;28;19904;-65
2022/08/24 04:07:52;;;;;;;;;;;16.80;99.90;;;;;;5067035;28;19938;-67
2022/08/24 04:10:17;;;;;;;;;;;16.80;99.90;;;;;;5069071;28;19904;-65
2022/08/24 04:12:44;;;;;;;;;;;16.80;99.90;;;;;;5068670;28;19913;-66
2022/08/24 04:15:10;;;;;;;;;;;16.90;99.90;;;;;;5066724;28;19916;-65
2022/08/24 04:17:35;;;;;;;;;;;16.90;99.90;;;;;;5068772;28;19908;-65
2022/08/24 04:20:01;;;;;;;;;;;16.80;99.90;;;;;;5065179;28;19919;-65
2022/08/24 04:22:28;;;;;;;;;;;16.80;99.90;;;;;;5068609;28;19930;-65
2022/08/24 04:24:54;;;;;;;;;;;16.80;99.90;;;;;;5063968;28;19909;-65
2022/08/24 04:27:20;;;;;;;;;;;16.80;99.90;;;;;;5068406;28;20441;-66
2022/08/24 04:29:45;;;;;;;;;;;16.80;99.90;;;;;;5062941;28;19908;-65
2022/08/24 04:32:10;;;;;;;;;;;16.80;99.90;;;;;;5068255;28;19918;-66
2022/08/24 04:34:36;;;;;;;;;;;16.80;99.90;;;;;;5060786;28;20335;-64
2022/08/24 04:37:02;;;;;;;;;;;16.80;99.90;;;;;;5001272;28;20469;-64
2022/08/24 04:39:27;;;;;;;;;;;16.80;99.90;;;;;;5059835;28;20006;-65
2022/08/24 04:41:52;;;;;;;;;;;16.80;99.90;;;;;;5068251;28;19998;-65
2022/08/24 04:44:18;;;;;;;;;;;16.80;99.90;;;;;;5058225;28;19909;-68
2022/08/24 04:46:43;;;;;;;;;;;16.80;99.90;;;;;;5068388;28;19966;-67
2022/08/24 04:49:09;;;;;;;;;;;16.90;99.90;;;;;;5047353;28;20422;-68
2022/08/24 04:51:35;;;;;;;;;;;16.90;99.90;;;;;;5067132;28;20639;-68
2022/08/24 04:54:00;;;;;;;;;;;16.90;99.90;;;;;;5047285;28;19919;-69
2022/08/24 04:56:26;;;;;;;;;;;16.90;99.90;;;;;;5069156;28;19912;-70
2022/08/24 04:58:52;;;;;;;;;;;17.00;99.90;;;;;;5054127;28;20283;-71
2022/08/24 05:01:19;;;;;;;;;;;17.00;99.90;;;;;;5055183;28;19904;-67
2022/08/24 05:03:47;;;;;;;;;;;17.00;99.90;;;;;;5072686;28;20533;-67
2022/08/24 05:06:14;;;;;;;;;;;17.10;99.90;;;;;;5075330;28;19908;-68
2022/08/24 05:08:39;;;;;;;;;;;17.10;99.90;;;;;;5073055;28;19908;-69
2022/08/24 05:11:07;;;;;;;;;;;17.10;99.90;;;;;;5075247;28;19908;-68
2022/08/24 05:13:33;;;;;;;;;;;17.20;99.90;;;;;;5073061;28;19909;-67
2022/08/24 05:15:58;;;;;;;;;;;17.20;99.90;;;;;;5074808;28;20370;-68
2022/08/24 05:18:26;;;;;;;;;;;17.30;99.90;;;;;;5053846;28;20011;-68
2022/08/24 05:20:52;;;;;;;;;;;17.30;99.90;;;;;;5055029;28;20378;-68
2022/08/24 05:23:18;;;;;;;;;;;17.30;99.90;;;;;;5072389;28;19908;-68
2022/08/24 05:25:43;;;;;;;;;;;17.30;99.90;;;;;;5074919;28;19943;-67
2022/08/24 05:28:09;;;;;;;;;;;17.40;99.90;;;;;;5072773;28;19952;-67
2022/08/24 05:30:35;;;;;;;;;;;17.40;99.90;;;;;;5075161;28;19991;-68
2022/08/24 05:33:01;;;;;;;;;;;17.40;99.90;;;;;;5072850;28;19931;-68
2022/08/24 05:35:26;;;;;;;;;;;17.50;99.90;;;;;;5072099;28;19916;-68
2022/08/24 05:37:52;;;;;;;;;;;17.50;99.90;;;;;;5074861;28;20025;-68
2022/08/24 05:40:18;;;;;;;;;;;17.60;99.90;;;;;;5071377;28;19909;-68
2022/08/24 05:42:43;;;;;;;;;;;17.70;99.90;;;;;;5074404;28;20338;-68
2022/08/24 05:45:09;;;;;;;;;;;17.80;99.90;;;;;;5070064;28;19908;-69
2022/08/24 05:47:35;;;;;;;;;;;17.90;99.90;;;;;;5074607;28;20427;-69
2022/08/24 05:50:00;;;;;;;;;;;18.00;99.90;;;;;;5068463;28;19916;-69
2022/08/24 05:52:26;;;;;;;;;;;18.10;99.90;;;;;;5074389;28;20556;-68
2022/08/24 05:54:53;;;;;;;;;;;18.10;99.90;;;;;;5067518;28;19916;-68
2022/08/24 05:57:19;;;;;;;;;;;18.20;99.90;;;;;;5074719;28;20327;-69
2022/08/24 05:59:44;;;;;;;;;;;18.30;99.90;;;;;;5066148;28;19997;-69
2022/08/24 06:02:10;;;;;;;;;;;18.30;99.90;;;;;;5074191;28;19908;-69
2022/08/24 06:04:37;;;;;;;;;;;18.40;99.90;;;;;;5064860;28;19969;-69
2022/08/24 06:07:03;;;;;;;;;;;18.40;99.90;;;;;;5074632;28;19919;-69
2022/08/24 06:09:28;;;;;;;;;;;18.50;99.90;;;;;;5049868;28;19915;-69
2022/08/24 06:11:54;;;;;;;;;;;18.50;99.90;;;;;;5070474;28;19908;-69
2022/08/24 06:14:19;;;;;;;;;;;18.50;99.90;;;;;;5050042;28;19913;-69
2022/08/24 06:16:45;;;;;;;;;;;18.60;99.90;;;;;;5070513;28;19912;-69
2022/08/24 06:19:12;;;;;;;;;;;18.60;99.90;;;;;;5050096;28;19908;-69
2022/08/24 06:21:38;;;;;;;;;;;18.60;99.90;;;;;;5051059;28;19912;-69
2022/08/24 06:24:04;;;;;;;;;;;18.70;99.90;;;;;;5083644;28;19909;-69
2022/08/24 06:29:13;;;;;;;;;;;18.80;99.90;;;;;;5049490;28;19915;-69
2022/08/24 06:31:40;;;;;;;;;;;18.80;99.90;;;;;;5070000;28;19908;-69
2022/08/24 06:34:12;;;;;;;;;;;18.80;99.90;;;;;;5052686;28;19908;-67
2022/08/24 06:36:37;;;;;;;;;;;18.90;99.90;;;;;;5068390;28;20291;-68
2022/08/24 06:39:03;;;;;;;;;;;19.00;99.90;;;;;;5049533;28;19959;-69
2022/08/24 06:41:29;;;;;;;;;;;19.10;99.90;;;;;;5050612;28;19960;-68
2022/08/24 06:43:54;;;;;;;;;;;19.20;99.90;;;;;;5067924;28;19962;-68
2022/08/24 06:46:20;;;;;;;;;;;19.30;99.90;;;;;;5070508;28;19905;-68
2022/08/24 06:48:45;;;;;;;;;;;19.30;99.90;;;;;;5068254;28;19918;-68
2022/08/24 06:51:11;;;;;;;;;;;19.40;99.90;;;;;;5070679;28;19910;-68
2022/08/24 06:53:37;;;;;;;;;;;19.60;99.90;;;;;;5068284;28;19918;-68
2022/08/24 06:56:03;;;;;;;;;;;19.70;99.90;;;;;;5070452;28;19995;-68
2022/08/24 06:58:29;;;;;;;;;;;19.80;99.90;;;;;;5068456;28;19934;-67
2022/08/24 07:00:55;;;;;;;;;;;19.90;99.90;;;;;;5070494;28;19908;-68
2022/08/24 07:03:21;;;;;;;;;;;20.10;99.90;;;;;;5070385;28;19939;-67
2022/08/24 07:05:54;;;;;;;;;;;20.20;99.90;;;;;;5068214;28;20011;-68
2022/08/24 07:08:19;;;;;;;;;;;20.30;99.90;;;;;;5070258;28;19908;-65
2022/08/24 07:10:45;;;;;;;;;;;20.30;99.90;;;;;;5067848;28;20307;-67
2022/08/24 07:13:11;;;;;;;;;;;20.40;99.90;;;;;;5069361;28;19908;-69
2022/08/24 07:15:36;;;;;;;;;;;20.50;99.90;;;;;;5066037;28;20305;-68
2022/08/24 07:18:02;;;;;;;;;;;20.60;99.90;;;;;;5068187;28;19912;-65
2022/08/24 07:20:30;;;;;;;;;;;20.70;99.90;;;;;;5065978;28;19965;-65
2022/08/24 07:22:56;;;;;;;;;;;20.80;99.90;;;;;;5067198;28;19912;-65
2022/08/24 07:25:21;;;;;;;;;;;20.90;99.90;;;;;;5066169;28;20022;-64
2022/08/24 07:27:46;;;;;;;;;;;20.90;99.90;;;;;;5050983;28;19916;-65
2022/08/24 07:30:12;;;;;;;;;;;20.90;99.90;;;;;;5053441;28;19912;-64
2022/08/24 07:32:38;;;;;;;;;;;21.00;99.90;;;;;;5069024;28;19909;-64
2022/08/24 07:35:03;;;;;;;;;;;21.10;99.90;;;;;;5061037;28;19938;-64
2022/08/24 07:37:29;;;;;;;;;;;21.20;99.90;;;;;;5069560;28;20038;-64
2022/08/24 07:39:55;;;;;;;;;;;21.30;99.90;;;;;;5060002;28;19912;-65
2022/08/24 07:42:21;;;;;;;;;;;21.30;99.90;;;;;;5069526;28;19908;-64
2022/08/24 07:44:46;;;;;;;;;;;21.40;99.90;;;;;;5056534;28;19970;-65
2022/08/24 07:47:12;;;;;;;;;;;21.50;99.90;;;;;;5067605;28;19928;-65
2022/08/24 07:49:39;;;;;;;;;;;21.50;99.90;;;;;;5064412;28;19995;-64
2022/08/24 07:52:04;;;;;;;;;;;21.50;99.90;;;;;;5068529;28;19913;-64
2022/08/24 07:54:30;;;;;;;;;;;21.70;99.90;;;;;;5065359;28;19916;-64
2022/08/24 07:56:57;;;;;;;;;;;21.90;99.90;;;;;;5069157;28;20543;-66
2022/08/24 07:59:23;;;;;;;;;;;22.00;99.90;;;;;;5063911;28;20378;-67
2022/08/24 08:01:49;;;;;;;;;;;22.10;99.90;;;;;;5068761;28;19924;-68
2022/08/24 08:04:15;;;;;;;;;;;22.20;99.90;;;;;;5067313;28;19999;-68
2022/08/24 08:06:41;;;;;;;;;;;22.20;99.90;;;;;;5065476;28;20007;-68
2022/08/24 08:09:06;;;;;;;;;;;22.20;99.90;;;;;;5051798;28;19909;-68
2022/08/24 08:11:32;;;;;;;;;;;22.30;99.90;;;;;;5069351;28;20029;-67
2022/08/24 08:13:57;;;;;;;;;;;22.40;99.90;;;;;;5047992;28;19977;-69
2022/08/24 08:16:23;;;;;;;;;;;22.60;99.90;;;;;;5049330;28;19913;-70
2022/08/24 08:18:48;;;;;;;;;;;22.80;99.90;;;;;;5064796;28;19909;-68
2022/08/24 08:24:17;;;;;;;;;;;23.00;99.90;;;;;;5048287;28;19919;-67
2022/08/24 08:26:43;;;;;;;;;;;23.10;99.90;;;;;;5067827;28;19912;-68
2022/08/24 08:29:11;;;;;;;;;;;23.20;99.90;;;;;;5064669;28;19915;-69
2022/08/24 08:31:37;;;;;;;;;;;23.20;99.90;;;;;;5065112;28;19908;-68
2022/08/24 08:34:02;;;;;;;;;;;23.10;99.90;;;;;;5060424;28;19912;-67
2022/08/24 08:36:28;;;;;;;;;;;23.00;99.90;;;;;;5068466;28;19943;-68
2022/08/24 08:38:54;;;;;;;;;;;22.90;99.90;;;;;;5066535;28;19912;-68
2022/08/24 08:41:38;;;;;;;;;;;22.90;99.90;;;;;;5068942;28;19915;-68
2022/08/24 08:44:13;;;;;;;;;;;22.90;99.90;;;;;;5047331;28;19951;-68
2022/08/24 08:46:44;;;;;;;;;;;22.90;99.90;;;;;;5048535;28;19905;-68
2022/08/24 08:49:29;;;;;;;;;;;23.10;99.90;;;;;;5053279;28;19942;-69
2022/08/24 08:51:57;;;;;;;;;;;23.30;99.90;;;;;;5067115;28;19919;-68
2022/08/24 08:54:29;;;;;;;;;;;23.60;99.90;;;;;;5063209;28;20404;-69
2022/08/24 08:57:14;;;;;;;;;;;23.80;99.90;;;;;;5067384;28;19955;-70
2022/08/24 08:59:50;;;;;;;;;;;24.10;99.90;;;;;;5063867;28;19920;-68
2022/08/24 09:02:40;;;;;;;;;;;24.50;99.90;;;;;;5066757;28;19908;-69
2022/08/24 09:05:24;;;;;;;;;;;24.80;99.90;;;;;;5056918;28;19927;-67
2022/08/24 09:07:55;;;;;;;;;;;25.20;99.90;;;;;;5049005;28;19912;-68
2022/08/24 09:10:34;;;;;;;;;;;25.50;99.90;;;;;;5058808;28;19916;-67
2022/08/24 09:13:06;;;;;;;;;;;25.50;99.90;;;;;;5048320;28;19919;-67
2022/08/24 09:15:36;;;;;;;;;;;25.50;99.90;;;;;;5060177;28;20374;-68
2022/08/24 09:18:08;;;;;;;;;;;25.30;99.90;;;;;;5048557;28;19944;-68
2022/08/24 09:21:02;;;;;;;;;;;25.20;99.90;;;;;;5060225;28;20272;-81
2022/08/24 09:23:41;;;;;;;;;;;25.10;99.90;;;;;;5041861;28;19915;-70
2022/08/24 09:26:27;;;;;;;;;;;25.10;99.90;;;;;;5064400;28;19913;-67
2022/08/24 09:29:02;;;;;;;;;;;25.00;99.90;;;;;;5065740;28;19912;-67
2022/08/24 09:31:57;;;;;;;;;;;25.00;99.90;;;;;;5068145;28;19947;-71
2022/08/24 09:34:31;;;;;;;;;;;25.10;99.90;;;;;;5009065;28;20562;-69
2022/08/24 09:37:13;;;;;;;;;;;25.20;99.90;;;;;;5066474;28;19990;-69
2022/08/24 09:39:42;;;;;;;;;;;25.30;99.90;;;;;;5064157;28;20398;-69
2022/08/24 09:42:20;;;;;;;;;;;25.30;99.90;;;;;;5067513;28;19909;-69
2022/08/24 09:45:04;;;;;;;;;;;25.30;99.90;;;;;;5067988;28;20421;-68
2022/08/24 09:47:33;;;;;;;;;;;25.40;99.90;;;;;;5070246;28;19912;-70
2022/08/24 09:50:10;;;;;;;;;;;25.50;99.90;;;;;;5068564;28;19917;-68
2022/08/24 09:52:49;;;;;;;;;;;25.40;99.90;;;;;;5070501;28;19912;-68
2022/08/24 09:55:25;;;;;;;;;;;25.40;99.90;;;;;;5067661;28;19916;-69
2022/08/24 09:57:57;;;;;;;;;;;25.60;99.90;;;;;;5071287;28;20366;-69
2022/08/24 10:00:42;;;;;;;;;;;25.80;99.90;;;;;;5068765;28;20026;-70
2022/08/24 10:03:26;;;;;;;;;;;25.80;99.90;;;;;;5068445;28;19912;-69
2022/08/24 10:05:59;;;;;;;;;;;26.00;99.90;;;;;;5064857;28;19908;-70
2022/08/24 10:08:33;;;;;;;;;;;26.20;99.90;;;;;;5051992;28;19912;-70
2022/08/24 10:10:59;;;;;;;;;;;26.30;99.90;;;;;;5064399;28;20335;-70
2022/08/24 10:13:31;;;;;;;;;;;26.40;99.90;;;;;;5068564;28;19919;-68
2022/08/24 10:15:59;;;;;;;;;;;26.50;99.90;;;;;;5064372;28;20377;-68
2022/08/24 10:18:31;;;;;;;;;;;26.60;99.90;;;;;;5068265;28;19947;-69
2022/08/24 10:21:02;;;;;;;;;;;26.70;99.90;;;;;;5067208;28;19909;-69
2022/08/24 10:23:39;;;;;;;;;;;26.70;99.90;;;;;;5067935;28;19908;-69
2022/08/24 10:26:15;;;;;;;;;;;26.80;99.90;;;;;;5067052;28;19927;-70
2022/08/24 10:28:55;;;;;;;;;;;26.60;99.90;;;;;;5069966;28;20377;-70
2022/08/24 10:31:25;;;;;;;;;;;26.60;99.90;;;;;;5067188;28;19908;-70
2022/08/24 10:34:04;;;;;;;;;;;26.50;99.90;;;;;;5065406;28;20045;-70
2022/08/24 10:36:40;;;;;;;;;;;26.40;99.90;;;;;;5066771;28;19918;-70
2022/08/24 10:39:39;;;;;;;;;;;26.50;99.90;;;;;;5070711;28;19919;-70
2022/08/24 10:45:16;;;;;;;;;;;26.60;99.90;;;;;;5066580;28;19915;-69
2022/08/24 10:47:52;;;;;;;;;;;26.70;99.90;;;;;;5069982;28;20347;-70
2022/08/24 10:50:43;;;;;;;;;;;26.80;99.90;;;;;;5067753;28;20342;-71
2022/08/24 10:53:30;;;;;;;;;;;26.90;99.90;;;;;;5034376;28;19912;-69
2022/08/24 10:56:09;;;;;;;;;;;27.00;99.90;;;;;;5067841;28;19912;-70
2022/08/24 10:58:36;;;;;;;;;;;27.00;99.90;;;;;;5053344;28;19918;-79
2022/08/24 11:01:16;;;;;;;;;;;26.90;99.90;;;;;;5053560;28;20279;-69
2022/08/24 11:03:48;;;;;;;;;;;26.80;99.90;;;;;;5069954;28;19908;-69
2022/08/24 11:06:14;;;;;;;;;;;26.70;99.90;;;;;;5065273;28;19908;-70
2022/08/24 11:08:49;;;;;;;;;;;26.80;99.90;;;;;;5070107;28;19912;-70
2022/08/24 11:11:22;;;;;;;;;;;26.80;99.90;;;;;;5063815;28;19912;-67
2022/08/24 11:13:51;;;;;;;;;;;26.80;99.90;;;;;;5050278;28;19909;-67
2022/08/24 11:16:22;;;;;;;;;;;26.70;99.90;;;;;;5064810;28;19927;-67
2022/08/24 11:18:49;;;;;;;;;;;26.80;99.90;;;;;;5050348;28;20111;-67
2022/08/24 11:21:38;;;;;;;;;;;26.80;99.90;;;;;;5067755;28;20042;-68
2022/08/24 11:24:06;;;;;;;;;;;26.80;99.90;;;;;;5044208;28;19934;-70
2022/08/24 11:26:34;;;;;;;;;;;26.80;99.90;;;;;;5067790;28;19909;-65
2022/08/24 11:29:03;;;;;;;;;;;27.00;99.90;;;;;;5049860;28;20302;-66
2022/08/24 11:31:38;;;;;;;;;;;27.30;99.90;;;;;;5050726;28;19962;-67
2022/08/24 11:34:06;;;;;;;;;;;27.30;99.90;;;;;;5049347;28;20387;-69
2022/08/24 11:36:34;;;;;;;;;;;27.00;99.90;;;;;;5064053;28;20377;-70
2022/08/24 11:39:18;;;;;;;;;;;26.90;99.90;;;;;;5067643;28;19908;-69
2022/08/24 11:41:54;;;;;;;;;;;27.10;99.90;;;;;;5048185;28;19986;-69
2022/08/24 11:44:38;;;;;;;;;;;27.60;99.90;;;;;;5069702;28;19913;-69
2022/08/24 11:47:23;;;;;;;;;;;28.10;99.90;;;;;;5050243;28;19913;-68
2022/08/24 11:49:57;;;;;;;;;;;28.40;99.90;;;;;;5047650;28;19917;-70
2022/08/24 11:52:38;;;;;;;;;;;28.60;99.90;;;;;;5061099;28;19912;-71
2022/08/24 11:55:07;;;;;;;;;;;28.50;99.90;;;;;;5062069;28;19948;-70
2022/08/24 11:57:54;;;;;;;;;;;28.40;99.90;;;;;;5069122;28;19910;-65
2022/08/24 12:00:22;;;;;;;;;;;28.40;99.90;;;;;;5064385;28;19912;-66
2022/08/24 12:02:55;;;;;;;;;;;28.40;99.90;;;;;;5069191;28;20069;-68
2022/08/24 12:05:23;;;;;;;;;;;28.30;99.90;;;;;;5064078;28;19920;-68
2022/08/24 12:08:07;;;;;;;;;;;28.50;99.90;;;;;;5067157;28;19909;-68
2022/08/24 12:10:57;;;;;;;;;;;28.90;99.70;;;;;;5065586;28;19915;-69
2022/08/24 12:13:34;;;;;;;;;;;29.20;99.10;;;;;;5066388;28;19912;-70
2022/08/24 12:15:59;;;;;;;;;;;29.60;98.60;;;;;;5061254;28;19916;-69
2022/08/24 12:18:28;;;;;;;;;;;30.00;97.80;;;;;;5067026;28;19935;-70
2022/08/24 12:20:55;;;;;;;;;;;30.30;96.70;;;;;;5063219;28;19934;-70
2022/08/24 12:23:25;;;;;;;;;;;30.70;95.70;;;;;;5064407;28;19912;-70
2022/08/24 12:26:02;;;;;;;;;;;31.10;95.00;;;;;;5057587;28;19963;-69
2022/08/24 12:28:36;;;;;;;;;;;31.50;94.40;;;;;;5049140;28;19920;-69
2022/08/24 12:31:06;;;;;;;;;;;31.80;93.10;;;;;;5057774;28;19912;-70
2022/08/24 12:33:32;;;;;;;;;;;32.10;91.60;;;;;;5062938;28;19919;-70
2022/08/24 12:36:03;;;;;;;;;;;32.50;91.30;;;;;;5046915;28;19919;-70
2022/08/24 12:38:34;;;;;;;;;;;33.10;89.60;;;;;;5068249;28;19909;-66
2022/08/24 12:41:23;;;;;;;;;;;33.60;87.10;;;;;;5062849;28;19922;-68
2022/08/24 12:44:02;;;;;;;;;;;34.10;82.80;;;;;;5048448;28;19916;-68
2022/08/24 12:46:28;;;;;;;;;;;34.50;81.30;;;;;;5062478;28;19916;-69
2022/08/24 12:49:03;;;;;;;;;;;34.90;78.50;;;;;;5062517;28;19921;-69
2022/08/24 12:51:47;;;;;;;;;;;35.30;74.60;;;;;;5060099;28;19908;-68
2022/08/24 12:54:31;;;;;;;;;;;35.60;72.90;;;;;;5068911;28;19908;-68
2022/08/24 12:57:01;;;;;;;;;;;35.70;70.40;;;;;;5066781;28;19923;-68
2022/08/24 12:59:35;;;;;;;;;;;35.30;68.50;;;;;;5068890;28;19928;-70
2022/08/24 13:02:04;;;;;;;;;;;35.10;67.90;;;;;;5065839;28;19908;-67
2022/08/24 13:04:30;;;;;;;;;;;35.10;67.30;;;;;;5067561;28;20045;-68
2022/08/24 13:07:07;;;;;;;;;;;34.80;68.20;;;;;;5065050;28;20027;-68
2022/08/24 13:09:37;;;;;;;;;;;34.90;69.60;;;;;;5065708;28;19913;-70
2022/08/24 13:12:32;;;;;;;;;;;35.40;68.10;;;;;;5063270;28;19916;-68
2022/08/24 13:15:16;;;;;;;;;;;35.90;65.60;;;;;;5046885;28;19924;-68
2022/08/24 13:17:42;;;;;;;;;;;36.50;64.50;;;;;;5049855;28;19912;-68
2022/08/24 13:20:16;;;;;;;;;;;37.10;62.40;;;;;;5070201;28;19912;-68
2022/08/24 13:22:47;;;;;;;;;;;37.50;61.60;;;;;;5072801;28;20006;-69
2022/08/24 13:25:41;;;;;;;;;;;38.10;59.60;;;;;;5070787;28;19991;-69
2022/08/24 13:28:09;;;;;;;;;;;38.50;57.70;;;;;;5072717;28;19991;-69
2022/08/24 13:30:44;;;;;;;;;;;39.10;56.60;;;;;;5070345;28;19991;-69
2022/08/24 13:33:11;;;;;;;;;;;39.10;54.50;;;;;;5071951;28;19908;-75
2022/08/24 13:35:40;;;;;;;;;;;38.30;54.80;;;;;;5070683;28;20011;-69
2022/08/24 13:38:22;;;;;;;;;;;37.10;56.00;;;;;;5072003;28;19908;-69
2022/08/24 13:40:50;;;;;;;;;;;36.70;57.10;;;;;;5058112;28;19909;-67
2022/08/24 13:43:26;;;;;;;;;;;37.30;55.60;;;;;;5071527;28;19912;-67
2022/08/24 13:45:56;;;;;;;;;;;38.20;54.20;;;;;;5058853;28;19908;-68
2022/08/24 13:48:26;;;;;;;;;;;39.00;52.40;;;;;;5051751;28;19912;-67
2022/08/24 13:50:58;;;;;;;;;;;39.80;50.80;;;;;;5058483;28;19951;-67
2022/08/24 13:53:40;;;;;;;;;;;40.50;50.00;;;;;;5053539;28;19920;-70
2022/08/24 13:56:08;;;;;;;;;;;41.10;49.30;;;;;;5067592;28;19982;-69
2022/08/24 13:58:48;;;;;;;;;;;41.80;48.10;;;;;;5068622;28;20339;-68
2022/08/24 14:01:21;;;;;;;;;;;42.40;46.70;;;;;;5065481;28;19923;-68
2022/08/24 14:04:05;;;;;;;;;;;42.90;44.70;;;;;;5067477;28;19908;-68
2022/08/24 14:06:37;;;;;;;;;;;43.30;44.00;;;;;;5066550;28;19948;-69
2022/08/24 14:09:25;;;;;;;;;;;43.60;42.70;;;;;;5070488;28;19915;-69
2022/08/24 14:12:02;;;;;;;;;;;43.10;42.50;;;;;;5067848;28;19930;-70
2022/08/24 14:14:49;;;;;;;;;;;41.20;43.90;;;;;;5068855;28;19931;-70
2022/08/24 14:20:26;;;;;;;;;;;39.00;47.40;;;;;;5067590;28;19962;-68
2022/08/24 14:22:55;;;;;;;;;;;38.30;48.40;;;;;;5069161;28;19912;-68
2022/08/24 14:25:22;;;;;;;;;;;37.30;49.30;;;;;;5066376;28;19916;-68
2022/08/24 14:27:48;;;;;;;;;;;37.00;50.90;;;;;;5070582;28;19912;-70
2022/08/24 14:30:34;;;;;;;;;;;37.70;50.50;;;;;;5064120;28;19917;-71
2022/08/24 14:32:59;;;;;;;;;;;39.00;48.20;;;;;;5067404;28;19913;-70
2022/08/24 14:35:28;;;;;;;;;;;40.00;46.40;;;;;;5064973;28;19923;-69
2022/08/24 14:38:00;;;;;;;;;;;40.90;45.10;;;;;;5067926;28;19912;-69
2022/08/24 14:40:30;;;;;;;;;;;41.80;44.40;;;;;;5067590;28;19962;-69
2022/08/24 14:42:57;;;;;;;;;;;42.10;43.50;;;;;;5068281;28;19909;-68
2022/08/24 14:45:37;;;;;;;;;;;41.60;43.80;;;;;;5066565;28;20387;-68